This is the latest recevied weather packets stored in our database for station/object KK4WXG. If no packets are shown the sender has not sent any weather packets the latest 10 day(s).
| Time | Temp. | Humidity | Pressure | Rain* | Wind** | Luminosity | Snow |
|---|---|---|---|---|---|---|---|
| 1778182690 | 19.44° C | 38% | 1008.4 hPa | 0 mm | - | 779 W/m² | - |
| 1778182388 | 19.44° C | 36% | 1008.6 hPa | 0 mm | - | 791 W/m² | - |
| 1778182083 | 19.44° C | 37% | 1008.6 hPa | 0 mm | - | 804 W/m² | - |
| 1778181780 | 18.89° C | 40% | 1008.6 hPa | 0 mm | - | 818 W/m² | - |
| 1778181476 | 19.44° C | 36% | 1008.9 hPa | 0 mm | - | 827 W/m² | - |
| 1778181173 | 19.44° C | 38% | 1009 hPa | 0 mm | - | 840 W/m² | - |
| 1778180870 | 18.89° C | 43% | 1008.9 hPa | 0 mm | - | 848 W/m² | - |
| 1778180569 | 18.89° C | 36% | 1009.2 hPa | 0 mm | - | 861 W/m² | - |
| 1778180267 | 18.89° C | 39% | 1008.9 hPa | 0 mm | - | 867 W/m² | - |
| 1778179963 | 18.89° C | 38% | 1009.3 hPa | 0 mm | - | 876 W/m² | - |
| 1778179661 | 18.33° C | 44% | 1009.1 hPa | 0 mm | - | 890 W/m² | - |
| 1778179359 | 18.89° C | 38% | 1009.2 hPa | 0 mm | - | 899 W/m² | - |
| 1778179055 | 18.89° C | 38% | 1009 hPa | 0 mm | - | 899 W/m² | - |
| 1778178752 | 18.89° C | 34% | 1009.2 hPa | 0 mm | - | 916 W/m² | - |
| 1778178449 | 18.89° C | 41% | 1009.2 hPa | 0 mm | - | 925 W/m² | - |
| 1778178144 | 18.33° C | 45% | 1009.3 hPa | 0 mm | - | 938 W/m² | - |
| 1778177841 | 18.33° C | 36% | 1009.4 hPa | 0 mm | - | 944 W/m² | - |
| 1778177538 | 18.33° C | 38% | 1009.4 hPa | 0 mm | - | 951 W/m² | - |
| 1778177234 | 18.33° C | 36% | 1009.5 hPa | 0 mm | - | 962 W/m² | - |
| 1778176932 | 17.78° C | 41% | 1009.4 hPa | 0 mm | - | 967 W/m² | - |
| 1778176627 | 17.78° C | 40% | 1009.6 hPa | 0 mm | - | 975 W/m² | - |
| 1778176324 | 17.22° C | 39% | 1009.8 hPa | 0 mm | - | 979 W/m² | - |
| 1778176021 | 17.78° C | 36% | 1009.9 hPa | 0 mm | - | 988 W/m² | - |
| 1778175720 | 17.22° C | 42% | 1010 hPa | 0 mm | - | 989 W/m² | - |
| 1778175417 | 17.22° C | 40% | 1010.1 hPa | 0 mm | - | 991 W/m² | - |
* Rain latest hour (hover to see other rain measurements)
** Current wind speed in m/s (hover to see current wind gust speed)